Terminal Aerodrome Forecast
Issued by NWS

Home | Current Version | Previous Version | Text Only | Print | Product List | Glossary Off
Versions: 1 2 3 4 5 6 7 8 9 10 11 12 13 14 15 16

000
FTUS41 KCLE 281100
TAFFDY
TAF
KFDY 281124Z 2812/2912 08003KT P6SM FEW150 BKN250
     FM281600 06003KT P6SM FEW045 BKN250
     FM290000 06002KT P6SM SCT200
     FM290900 00000KT 4SM BR SCT200=

USA.gov is the U.S. government's official web portal to all federal, state and local government web resources and services.